sensor_id;sensor_type;location;lat;lon;timestamp;P1;durP1;ratioP1;P2;durP2;ratioP2
53151;SDS011;39234;53.158;6.322;2022-12-18T00:01:26;111.50;;;39.45;;
53151;SDS011;39234;53.158;6.322;2022-12-18T00:03:53;104.78;;;37.70;;
53151;SDS011;39234;53.158;6.322;2022-12-18T00:06:20;109.05;;;37.05;;
53151;SDS011;39234;53.158;6.322;2022-12-18T00:08:46;114.20;;;38.17;;
53151;SDS011;39234;53.158;6.322;2022-12-18T00:11:17;117.43;;;41.40;;
53151;SDS011;39234;53.158;6.322;2022-12-18T00:13:43;113.25;;;41.08;;
53151;SDS011;39234;53.158;6.322;2022-12-18T00:16:11;122.70;;;42.22;;
53151;SDS011;39234;53.158;6.322;2022-12-18T00:18:37;116.57;;;41.33;;
53151;SDS011;39234;53.158;6.322;2022-12-18T00:21:04;101.22;;;36.40;;
53151;SDS011;39234;53.158;6.322;2022-12-18T00:23:31;117.65;;;39.22;;
53151;SDS011;39234;53.158;6.322;2022-12-18T00:26:01;101.60;;;36.92;;
53151;SDS011;39234;53.158;6.322;2022-12-18T00:28:27;99.32;;;37.67;;
53151;SDS011;39234;53.158;6.322;2022-12-18T00:31:03;103.57;;;34.78;;
53151;SDS011;39234;53.158;6.322;2022-12-18T00:33:29;91.78;;;33.92;;
53151;SDS011;39234;53.158;6.322;2022-12-18T00:36:00;94.15;;;36.03;;
53151;SDS011;39234;53.158;6.322;2022-12-18T00:38:26;96.70;;;36.70;;
53151;SDS011;39234;53.158;6.322;2022-12-18T00:40:52;80.40;;;30.48;;
53151;SDS011;39234;53.158;6.322;2022-12-18T00:43:18;113.95;;;36.67;;
53151;SDS011;39234;53.158;6.322;2022-12-18T00:45:44;90.22;;;34.10;;
53151;SDS011;39234;53.158;6.322;2022-12-18T00:48:11;101.80;;;35.97;;
53151;SDS011;39234;53.158;6.322;2022-12-18T00:50:37;93.75;;;33.10;;
53151;SDS011;39234;53.158;6.322;2022-12-18T00:53:03;89.13;;;31.80;;
53151;SDS011;39234;53.158;6.322;2022-12-18T00:55:29;91.82;;;34.30;;
53151;SDS011;39234;53.158;6.322;2022-12-18T00:57:55;89.07;;;33.50;;
53151;SDS011;39234;53.158;6.322;2022-12-18T01:00:21;94.88;;;35.78;;
53151;SDS011;39234;53.158;6.322;2022-12-18T01:02:47;82.38;;;29.83;;
53151;SDS011;39234;53.158;6.322;2022-12-18T01:05:15;97.45;;;34.90;;
53151;SDS011;39234;53.158;6.322;2022-12-18T01:07:41;94.90;;;33.25;;
53151;SDS011;39234;53.158;6.322;2022-12-18T01:10:08;103.45;;;35.67;;
53151;SDS011;39234;53.158;6.322;2022-12-18T01:12:35;83.35;;;31.60;;
53151;SDS011;39234;53.158;6.322;2022-12-18T01:15:01;93.65;;;32.30;;
53151;SDS011;39234;53.158;6.322;2022-12-18T01:17:27;102.07;;;35.75;;
53151;SDS011;39234;53.158;6.322;2022-12-18T01:19:53;97.60;;;34.72;;
53151;SDS011;39234;53.158;6.322;2022-12-18T01:22:19;88.28;;;31.10;;
53151;SDS011;39234;53.158;6.322;2022-12-18T01:24:45;96.20;;;33.70;;
53151;SDS011;39234;53.158;6.322;2022-12-18T01:27:11;96.65;;;33.85;;
53151;SDS011;39234;53.158;6.322;2022-12-18T01:29:37;95.50;;;37.03;;
53151;SDS011;39234;53.158;6.322;2022-12-18T01:32:03;86.18;;;31.05;;
53151;SDS011;39234;53.158;6.322;2022-12-18T01:34:30;97.07;;;36.63;;
53151;SDS011;39234;53.158;6.322;2022-12-18T01:36:56;100.60;;;34.05;;
53151;SDS011;39234;53.158;6.322;2022-12-18T01:39:22;87.78;;;31.23;;
53151;SDS011;39234;53.158;6.322;2022-12-18T01:41:48;95.60;;;33.97;;
53151;SDS011;39234;53.158;6.322;2022-12-18T01:47:18;91.03;;;32.08;;
53151;SDS011;39234;53.158;6.322;2022-12-18T01:49:45;103.75;;;34.47;;
53151;SDS011;39234;53.158;6.322;2022-12-18T01:52:11;90.93;;;34.05;;
53151;SDS011;39234;53.158;6.322;2022-12-18T01:54:38;88.45;;;32.90;;
53151;SDS011;39234;53.158;6.322;2022-12-18T01:57:04;82.13;;;31.77;;
53151;SDS011;39234;53.158;6.322;2022-12-18T01:59:30;89.45;;;32.67;;
53151;SDS011;39234;53.158;6.322;2022-12-18T02:01:57;91.88;;;33.28;;
53151;SDS011;39234;53.158;6.322;2022-12-18T02:04:24;90.25;;;32.25;;
53151;SDS011;39234;53.158;6.322;2022-12-18T02:06:54;92.93;;;33.80;;
53151;SDS011;39234;53.158;6.322;2022-12-18T02:09:31;99.97;;;34.83;;
53151;SDS011;39234;53.158;6.322;2022-12-18T02:12:02;77.85;;;30.55;;
53151;SDS011;39234;53.158;6.322;2022-12-18T02:14:38;94.68;;;33.65;;
53151;SDS011;39234;53.158;6.322;2022-12-18T02:17:06;89.40;;;32.97;;
53151;SDS011;39234;53.158;6.322;2022-12-18T02:22:49;89.00;;;31.90;;
53151;SDS011;39234;53.158;6.322;2022-12-18T02:25:32;78.22;;;30.02;;
53151;SDS011;39234;53.158;6.322;2022-12-18T02:27:32;75.00;;;29.70;;
53151;SDS011;39234;53.158;6.322;2022-12-18T02:29:59;69.45;;;28.05;;
53151;SDS011;39234;53.158;6.322;2022-12-18T02:32:27;86.45;;;30.52;;
53151;SDS011;39234;53.158;6.322;2022-12-18T02:34:55;82.90;;;31.48;;
53151;SDS011;39234;53.158;6.322;2022-12-18T02:37:22;69.30;;;29.08;;
53151;SDS011;39234;53.158;6.322;2022-12-18T02:39:49;79.15;;;31.10;;
53151;SDS011;39234;53.158;6.322;2022-12-18T02:42:16;83.15;;;31.92;;
53151;SDS011;39234;53.158;6.322;2022-12-18T02:44:44;93.15;;;33.35;;
53151;SDS011;39234;53.158;6.322;2022-12-18T02:47:11;92.78;;;31.95;;
53151;SDS011;39234;53.158;6.322;2022-12-18T02:55:28;93.50;;;32.42;;
53151;SDS011;39234;53.158;6.322;2022-12-18T03:00:35;103.28;;;35.22;;
53151;SDS011;39234;53.158;6.322;2022-12-18T03:03:08;106.38;;;34.08;;
53151;SDS011;39234;53.158;6.322;2022-12-18T03:05:37;93.85;;;31.83;;
53151;SDS011;39234;53.158;6.322;2022-12-18T03:08:26;104.90;;;35.38;;
53151;SDS011;39234;53.158;6.322;2022-12-18T03:10:55;98.82;;;36.00;;
53151;SDS011;39234;53.158;6.322;2022-12-18T03:13:25;107.32;;;35.75;;
53151;SDS011;39234;53.158;6.322;2022-12-18T03:15:53;108.72;;;36.00;;
53151;SDS011;39234;53.158;6.322;2022-12-18T03:18:25;108.30;;;35.63;;
53151;SDS011;39234;53.158;6.322;2022-12-18T03:20:53;100.10;;;37.35;;
53151;SDS011;39234;53.158;6.322;2022-12-18T03:23:22;95.90;;;36.28;;
53151;SDS011;39234;53.158;6.322;2022-12-18T03:25:50;94.38;;;34.92;;
53151;SDS011;39234;53.158;6.322;2022-12-18T03:28:19;94.50;;;32.72;;
53151;SDS011;39234;53.158;6.322;2022-12-18T03:30:46;88.00;;;34.72;;
53151;SDS011;39234;53.158;6.322;2022-12-18T03:33:16;83.40;;;32.72;;
53151;SDS011;39234;53.158;6.322;2022-12-18T03:35:44;85.25;;;33.28;;
53151;SDS011;39234;53.158;6.322;2022-12-18T03:38:11;88.43;;;34.80;;
53151;SDS011;39234;53.158;6.322;2022-12-18T03:40:50;86.07;;;32.85;;
53151;SDS011;39234;53.158;6.322;2022-12-18T03:45:50;81.72;;;32.42;;
53151;SDS011;39234;53.158;6.322;2022-12-18T03:48:26;78.90;;;32.97;;
53151;SDS011;39234;53.158;6.322;2022-12-18T03:51:01;83.85;;;33.97;;
53151;SDS011;39234;53.158;6.322;2022-12-18T03:53:42;79.70;;;32.33;;
53151;SDS011;39234;53.158;6.322;2022-12-18T03:56:13;78.63;;;30.40;;
53151;SDS011;39234;53.158;6.322;2022-12-18T03:58:39;75.90;;;32.38;;
53151;SDS011;39234;53.158;6.322;2022-12-18T04:01:06;80.82;;;32.75;;
53151;SDS011;39234;53.158;6.322;2022-12-18T04:03:32;81.80;;;33.38;;
53151;SDS011;39234;53.158;6.322;2022-12-18T04:05:59;82.63;;;31.30;;
53151;SDS011;39234;53.158;6.322;2022-12-18T04:08:26;71.53;;;31.48;;
53151;SDS011;39234;53.158;6.322;2022-12-18T04:10:52;76.97;;;32.92;;
53151;SDS011;39234;53.158;6.322;2022-12-18T04:13:28;77.05;;;30.15;;
53151;SDS011;39234;53.158;6.322;2022-12-18T04:15:54;74.43;;;30.02;;
53151;SDS011;39234;53.158;6.322;2022-12-18T04:18:20;79.22;;;32.60;;
53151;SDS011;39234;53.158;6.322;2022-12-18T04:20:46;68.63;;;29.98;;
53151;SDS011;39234;53.158;6.322;2022-12-18T04:23:12;71.05;;;29.33;;
53151;SDS011;39234;53.158;6.322;2022-12-18T04:25:38;70.72;;;30.17;;
53151;SDS011;39234;53.158;6.322;2022-12-18T04:28:05;71.60;;;29.17;;
53151;SDS011;39234;53.158;6.322;2022-12-18T04:30:31;71.40;;;29.30;;
53151;SDS011;39234;53.158;6.322;2022-12-18T04:32:57;62.13;;;27.75;;
53151;SDS011;39234;53.158;6.322;2022-12-18T04:35:23;58.75;;;26.23;;
53151;SDS011;39234;53.158;6.322;2022-12-18T04:37:50;67.15;;;29.52;;
53151;SDS011;39234;53.158;6.322;2022-12-18T04:40:16;70.97;;;28.73;;
53151;SDS011;39234;53.158;6.322;2022-12-18T04:42:42;65.00;;;27.70;;
53151;SDS011;39234;53.158;6.322;2022-12-18T04:45:08;62.80;;;27.83;;
53151;SDS011;39234;53.158;6.322;2022-12-18T04:47:34;63.50;;;25.73;;
53151;SDS011;39234;53.158;6.322;2022-12-18T04:50:01;67.72;;;27.90;;
53151;SDS011;39234;53.158;6.322;2022-12-18T04:52:27;57.30;;;27.77;;
53151;SDS011;39234;53.158;6.322;2022-12-18T04:54:53;61.72;;;26.27;;
53151;SDS011;39234;53.158;6.322;2022-12-18T04:57:19;58.75;;;26.63;;
53151;SDS011;39234;53.158;6.322;2022-12-18T04:59:45;62.70;;;27.15;;
53151;SDS011;39234;53.158;6.322;2022-12-18T05:02:11;61.70;;;25.27;;
53151;SDS011;39234;53.158;6.322;2022-12-18T05:04:38;61.45;;;25.75;;
53151;SDS011;39234;53.158;6.322;2022-12-18T05:07:04;64.75;;;26.27;;
53151;SDS011;39234;53.158;6.322;2022-12-18T05:09:30;59.75;;;24.88;;
53151;SDS011;39234;53.158;6.322;2022-12-18T05:11:56;59.70;;;25.98;;
53151;SDS011;39234;53.158;6.322;2022-12-18T05:14:22;65.95;;;25.35;;
53151;SDS011;39234;53.158;6.322;2022-12-18T05:16:48;64.38;;;28.00;;
53151;SDS011;39234;53.158;6.322;2022-12-18T05:19:14;64.63;;;26.98;;
53151;SDS011;39234;53.158;6.322;2022-12-18T05:21:41;66.50;;;25.60;;
53151;SDS011;39234;53.158;6.322;2022-12-18T05:24:07;61.85;;;26.25;;
53151;SDS011;39234;53.158;6.322;2022-12-18T05:26:33;63.95;;;27.52;;
53151;SDS011;39234;53.158;6.322;2022-12-18T05:28:59;62.67;;;26.05;;
53151;SDS011;39234;53.158;6.322;2022-12-18T05:31:25;62.00;;;26.13;;
53151;SDS011;39234;53.158;6.322;2022-12-18T05:33:51;76.43;;;28.13;;
53151;SDS011;39234;53.158;6.322;2022-12-18T05:36:17;60.33;;;26.83;;
53151;SDS011;39234;53.158;6.322;2022-12-18T05:38:43;59.95;;;25.25;;
53151;SDS011;39234;53.158;6.322;2022-12-18T05:41:09;64.63;;;26.98;;
53151;SDS011;39234;53.158;6.322;2022-12-18T05:43:36;63.58;;;24.70;;
53151;SDS011;39234;53.158;6.322;2022-12-18T05:46:11;63.28;;;24.40;;
53151;SDS011;39234;53.158;6.322;2022-12-18T05:48:38;64.40;;;26.33;;
53151;SDS011;39234;53.158;6.322;2022-12-18T05:51:05;59.75;;;24.27;;
53151;SDS011;39234;53.158;6.322;2022-12-18T05:53:32;56.60;;;23.45;;
53151;SDS011;39234;53.158;6.322;2022-12-18T05:56:02;55.03;;;25.50;;
53151;SDS011;39234;53.158;6.322;2022-12-18T05:58:28;59.35;;;23.83;;
53151;SDS011;39234;53.158;6.322;2022-12-18T06:00:54;61.90;;;23.90;;
53151;SDS011;39234;53.158;6.322;2022-12-18T06:03:20;67.07;;;23.52;;
53151;SDS011;39234;53.158;6.322;2022-12-18T06:05:47;57.75;;;25.77;;
53151;SDS011;39234;53.158;6.322;2022-12-18T06:08:13;56.60;;;24.70;;
53151;SDS011;39234;53.158;6.322;2022-12-18T06:10:39;57.05;;;22.20;;
53151;SDS011;39234;53.158;6.322;2022-12-18T06:13:06;58.63;;;25.05;;
53151;SDS011;39234;53.158;6.322;2022-12-18T06:15:32;61.90;;;23.52;;
53151;SDS011;39234;53.158;6.322;2022-12-18T06:17:59;60.58;;;25.30;;
53151;SDS011;39234;53.158;6.322;2022-12-18T06:20:25;60.70;;;24.35;;
53151;SDS011;39234;53.158;6.322;2022-12-18T06:22:52;66.05;;;24.23;;
53151;SDS011;39234;53.158;6.322;2022-12-18T06:25:18;55.40;;;22.75;;
53151;SDS011;39234;53.158;6.322;2022-12-18T06:27:44;54.58;;;23.05;;
53151;SDS011;39234;53.158;6.322;2022-12-18T06:30:10;58.63;;;23.50;;
53151;SDS011;39234;53.158;6.322;2022-12-18T06:32:37;60.58;;;22.70;;
53151;SDS011;39234;53.158;6.322;2022-12-18T06:35:03;50.47;;;21.80;;
53151;SDS011;39234;53.158;6.322;2022-12-18T06:37:30;61.20;;;23.58;;
53151;SDS011;39234;53.158;6.322;2022-12-18T06:39:56;57.05;;;22.88;;
53151;SDS011;39234;53.158;6.322;2022-12-18T06:42:23;56.83;;;22.88;;
53151;SDS011;39234;53.158;6.322;2022-12-18T06:44:49;55.58;;;23.52;;
53151;SDS011;39234;53.158;6.322;2022-12-18T06:47:15;64.50;;;23.60;;
53151;SDS011;39234;53.158;6.322;2022-12-18T06:49:41;54.35;;;22.02;;
53151;SDS011;39234;53.158;6.322;2022-12-18T06:52:07;59.05;;;22.55;;
53151;SDS011;39234;53.158;6.322;2022-12-18T06:54:33;56.97;;;24.27;;
53151;SDS011;39234;53.158;6.322;2022-12-18T06:56:59;57.85;;;22.42;;
53151;SDS011;39234;53.158;6.322;2022-12-18T06:59:26;50.55;;;22.08;;
53151;SDS011;39234;53.158;6.322;2022-12-18T07:01:52;55.72;;;22.80;;
53151;SDS011;39234;53.158;6.322;2022-12-18T07:04:18;57.88;;;21.92;;
53151;SDS011;39234;53.158;6.322;2022-12-18T07:06:44;58.17;;;23.58;;
53151;SDS011;39234;53.158;6.322;2022-12-18T07:09:11;51.45;;;21.85;;
53151;SDS011;39234;53.158;6.322;2022-12-18T07:11:37;49.55;;;22.65;;
53151;SDS011;39234;53.158;6.322;2022-12-18T07:14:03;52.83;;;21.75;;
53151;SDS011;39234;53.158;6.322;2022-12-18T07:16:29;48.90;;;20.88;;
53151;SDS011;39234;53.158;6.322;2022-12-18T07:18:55;53.20;;;21.98;;
53151;SDS011;39234;53.158;6.322;2022-12-18T07:21:22;54.30;;;22.80;;
53151;SDS011;39234;53.158;6.322;2022-12-18T07:23:48;40.50;;;20.55;;
53151;SDS011;39234;53.158;6.322;2022-12-18T07:26:16;49.40;;;21.75;;
53151;SDS011;39234;53.158;6.322;2022-12-18T07:28:42;46.45;;;20.52;;
53151;SDS011;39234;53.158;6.322;2022-12-18T07:31:13;46.88;;;21.23;;
53151;SDS011;39234;53.158;6.322;2022-12-18T07:33:39;43.42;;;19.60;;
53151;SDS011;39234;53.158;6.322;2022-12-18T07:36:06;42.42;;;19.73;;
53151;SDS011;39234;53.158;6.322;2022-12-18T07:38:33;43.90;;;19.52;;
53151;SDS011;39234;53.158;6.322;2022-12-18T07:41:04;44.50;;;18.40;;
53151;SDS011;39234;53.158;6.322;2022-12-18T07:43:30;42.70;;;21.13;;
53151;SDS011;39234;53.158;6.322;2022-12-18T07:45:56;46.88;;;20.02;;
53151;SDS011;39234;53.158;6.322;2022-12-18T07:48:22;36.40;;;18.75;;
53151;SDS011;39234;53.158;6.322;2022-12-18T07:50:48;42.85;;;19.40;;
53151;SDS011;39234;53.158;6.322;2022-12-18T07:53:15;38.90;;;17.88;;
53151;SDS011;39234;53.158;6.322;2022-12-18T07:55:41;37.15;;;17.48;;
53151;SDS011;39234;53.158;6.322;2022-12-18T07:58:07;41.80;;;18.17;;
53151;SDS011;39234;53.158;6.322;2022-12-18T08:00:33;40.38;;;17.75;;
53151;SDS011;39234;53.158;6.322;2022-12-18T08:03:00;39.53;;;19.05;;
53151;SDS011;39234;53.158;6.322;2022-12-18T08:05:26;42.60;;;18.15;;
53151;SDS011;39234;53.158;6.322;2022-12-18T08:07:53;35.22;;;17.80;;
53151;SDS011;39234;53.158;6.322;2022-12-18T08:10:19;35.13;;;16.95;;
53151;SDS011;39234;53.158;6.322;2022-12-18T08:12:48;36.90;;;17.38;;
53151;SDS011;39234;53.158;6.322;2022-12-18T08:15:14;37.08;;;16.90;;
53151;SDS011;39234;53.158;6.322;2022-12-18T08:17:40;34.85;;;17.15;;
53151;SDS011;39234;53.158;6.322;2022-12-18T08:20:07;36.22;;;17.63;;
53151;SDS011;39234;53.158;6.322;2022-12-18T08:22:34;36.83;;;18.63;;
53151;SDS011;39234;53.158;6.322;2022-12-18T08:25:00;37.63;;;19.33;;
53151;SDS011;39234;53.158;6.322;2022-12-18T08:27:26;35.58;;;17.25;;
53151;SDS011;39234;53.158;6.322;2022-12-18T08:29:53;36.08;;;17.15;;
53151;SDS011;39234;53.158;6.322;2022-12-18T08:32:19;34.38;;;17.10;;
53151;SDS011;39234;53.158;6.322;2022-12-18T08:34:45;33.22;;;17.17;;
53151;SDS011;39234;53.158;6.322;2022-12-18T08:37:11;31.73;;;16.20;;
53151;SDS011;39234;53.158;6.322;2022-12-18T08:39:37;31.55;;;15.63;;
53151;SDS011;39234;53.158;6.322;2022-12-18T08:42:03;33.95;;;17.10;;
53151;SDS011;39234;53.158;6.322;2022-12-18T08:44:48;33.58;;;17.25;;
53151;SDS011;39234;53.158;6.322;2022-12-18T08:47:14;34.97;;;16.85;;
53151;SDS011;39234;53.158;6.322;2022-12-18T08:49:40;29.70;;;15.93;;
53151;SDS011;39234;53.158;6.322;2022-12-18T08:52:06;33.72;;;17.52;;
53151;SDS011;39234;53.158;6.322;2022-12-18T08:54:32;32.22;;;16.45;;
53151;SDS011;39234;53.158;6.322;2022-12-18T08:56:58;30.95;;;16.67;;
53151;SDS011;39234;53.158;6.322;2022-12-18T08:59:25;31.42;;;16.38;;
53151;SDS011;39234;53.158;6.322;2022-12-18T09:01:53;31.67;;;17.05;;
53151;SDS011;39234;53.158;6.322;2022-12-18T09:04:19;30.58;;;15.93;;
53151;SDS011;39234;53.158;6.322;2022-12-18T09:06:45;27.75;;;15.25;;
53151;SDS011;39234;53.158;6.322;2022-12-18T09:09:11;27.08;;;15.57;;
53151;SDS011;39234;53.158;6.322;2022-12-18T09:11:37;27.10;;;15.95;;
53151;SDS011;39234;53.158;6.322;2022-12-18T09:14:03;30.50;;;16.20;;
53151;SDS011;39234;53.158;6.322;2022-12-18T09:16:29;30.40;;;15.75;;
53151;SDS011;39234;53.158;6.322;2022-12-18T09:18:56;30.00;;;16.25;;
53151;SDS011;39234;53.158;6.322;2022-12-18T09:21:27;23.50;;;14.38;;
53151;SDS011;39234;53.158;6.322;2022-12-18T09:23:54;31.52;;;16.02;;
53151;SDS011;39234;53.158;6.322;2022-12-18T09:26:21;28.88;;;14.15;;
53151;SDS011;39234;53.158;6.322;2022-12-18T09:28:47;26.10;;;14.85;;
53151;SDS011;39234;53.158;6.322;2022-12-18T09:31:14;25.70;;;13.32;;
53151;SDS011;39234;53.158;6.322;2022-12-18T09:33:40;26.38;;;13.85;;
53151;SDS011;39234;53.158;6.322;2022-12-18T09:36:06;26.13;;;14.73;;
53151;SDS011;39234;53.158;6.322;2022-12-18T09:38:33;27.05;;;14.48;;
53151;SDS011;39234;53.158;6.322;2022-12-18T09:41:04;22.75;;;13.68;;
53151;SDS011;39234;53.158;6.322;2022-12-18T09:46:08;22.65;;;12.63;;
53151;SDS011;39234;53.158;6.322;2022-12-18T09:48:37;23.38;;;12.90;;
53151;SDS011;39234;53.158;6.322;2022-12-18T09:51:15;25.77;;;13.90;;
53151;SDS011;39234;53.158;6.322;2022-12-18T09:53:44;25.33;;;12.82;;
53151;SDS011;39234;53.158;6.322;2022-12-18T09:56:18;24.25;;;13.52;;
53151;SDS011;39234;53.158;6.322;2022-12-18T09:58:49;23.50;;;12.73;;
53151;SDS011;39234;53.158;6.322;2022-12-18T10:01:21;21.88;;;12.65;;
53151;SDS011;39234;53.158;6.322;2022-12-18T10:03:47;22.30;;;13.23;;
53151;SDS011;39234;53.158;6.322;2022-12-18T10:08:42;22.60;;;13.38;;
53151;SDS011;39234;53.158;6.322;2022-12-18T10:16:59;21.40;;;11.80;;
53151;SDS011;39234;53.158;6.322;2022-12-18T10:22:10;20.83;;;12.40;;
53151;SDS011;39234;53.158;6.322;2022-12-18T10:24:42;21.13;;;11.07;;
53151;SDS011;39234;53.158;6.322;2022-12-18T10:27:15;20.63;;;10.93;;
53151;SDS011;39234;53.158;6.322;2022-12-18T10:29:42;18.23;;;10.93;;
53151;SDS011;39234;53.158;6.322;2022-12-18T10:32:13;17.38;;;10.05;;
53151;SDS011;39234;53.158;6.322;2022-12-18T10:34:40;18.48;;;9.98;;
53151;SDS011;39234;53.158;6.322;2022-12-18T10:37:06;20.35;;;11.27;;
53151;SDS011;39234;53.158;6.322;2022-12-18T10:39:37;19.47;;;10.87;;
53151;SDS011;39234;53.158;6.322;2022-12-18T10:42:09;19.77;;;11.07;;
53151;SDS011;39234;53.158;6.322;2022-12-18T10:44:36;20.75;;;10.52;;
53151;SDS011;39234;53.158;6.322;2022-12-18T10:47:03;19.88;;;10.70;;
53151;SDS011;39234;53.158;6.322;2022-12-18T10:49:31;16.80;;;10.43;;
53151;SDS011;39234;53.158;6.322;2022-12-18T10:52:11;18.08;;;10.40;;
53151;SDS011;39234;53.158;6.322;2022-12-18T10:54:39;20.23;;;10.02;;
53151;SDS011;39234;53.158;6.322;2022-12-18T10:57:16;17.95;;;10.57;;
53151;SDS011;39234;53.158;6.322;2022-12-18T10:59:53;17.67;;;10.38;;
53151;SDS011;39234;53.158;6.322;2022-12-18T11:02:27;20.52;;;10.07;;
53151;SDS011;39234;53.158;6.322;2022-12-18T11:04:54;20.63;;;10.93;;
53151;SDS011;39234;53.158;6.322;2022-12-18T11:07:20;16.23;;;10.27;;
53151;SDS011;39234;53.158;6.322;2022-12-18T11:09:59;17.58;;;10.23;;
53151;SDS011;39234;53.158;6.322;2022-12-18T11:12:30;16.60;;;9.93;;
53151;SDS011;39234;53.158;6.322;2022-12-18T11:14:57;16.23;;;8.88;;
53151;SDS011;39234;53.158;6.322;2022-12-18T11:17:27;18.08;;;9.68;;
53151;SDS011;39234;53.158;6.322;2022-12-18T11:19:58;18.67;;;9.98;;
53151;SDS011;39234;53.158;6.322;2022-12-18T11:22:29;16.27;;;8.77;;
53151;SDS011;39234;53.158;6.322;2022-12-18T11:25:03;15.93;;;9.32;;
53151;SDS011;39234;53.158;6.322;2022-12-18T11:27:30;15.38;;;7.80;;
53151;SDS011;39234;53.158;6.322;2022-12-18T11:37:53;14.60;;;7.90;;
53151;SDS011;39234;53.158;6.322;2022-12-18T11:40:30;14.30;;;7.50;;
53151;SDS011;39234;53.158;6.322;2022-12-18T11:45:28;13.40;;;7.65;;
53151;SDS011;39234;53.158;6.322;2022-12-18T11:48:16;12.55;;;7.50;;
53151;SDS011;39234;53.158;6.322;2022-12-18T11:53:10;11.52;;;6.28;;
53151;SDS011;39234;53.158;6.322;2022-12-18T11:55:38;13.55;;;7.47;;
53151;SDS011;39234;53.158;6.322;2022-12-18T12:00:46;11.38;;;6.15;;
53151;SDS011;39234;53.158;6.322;2022-12-18T12:10:47;13.57;;;7.30;;
53151;SDS011;39234;53.158;6.322;2022-12-18T12:39:44;10.95;;;6.90;;
53151;SDS011;39234;53.158;6.322;2022-12-18T12:42:14;12.75;;;6.70;;
53151;SDS011;39234;53.158;6.322;2022-12-18T12:45:00;10.13;;;5.68;;
53151;SDS011;39234;53.158;6.322;2022-12-18T12:47:31;12.70;;;6.63;;
53151;SDS011;39234;53.158;6.322;2022-12-18T12:50:02;11.70;;;6.55;;
53151;SDS011;39234;53.158;6.322;2022-12-18T12:52:34;10.47;;;5.90;;
53151;SDS011;39234;53.158;6.322;2022-12-18T12:55:02;10.13;;;5.65;;
53151;SDS011;39234;53.158;6.322;2022-12-18T12:57:31;12.65;;;5.50;;
53151;SDS011;39234;53.158;6.322;2022-12-18T13:00:17;10.18;;;5.93;;
53151;SDS011;39234;53.158;6.322;2022-12-18T13:02:50;11.52;;;6.35;;
53151;SDS011;39234;53.158;6.322;2022-12-18T13:08:05;10.93;;;6.25;;
53151;SDS011;39234;53.158;6.322;2022-12-18T13:10:33;10.10;;;6.18;;
53151;SDS011;39234;53.158;6.322;2022-12-18T13:13:07;11.52;;;5.70;;
53151;SDS011;39234;53.158;6.322;2022-12-18T13:28:24;12.50;;;7.00;;
53151;SDS011;39234;53.158;6.322;2022-12-18T13:31:08;13.05;;;6.50;;
53151;SDS011;39234;53.158;6.322;2022-12-18T13:39:09;11.45;;;5.85;;
53151;SDS011;39234;53.158;6.322;2022-12-18T13:41:36;11.18;;;6.38;;
53151;SDS011;39234;53.158;6.322;2022-12-18T13:46:47;9.93;;;5.38;;
53151;SDS011;39234;53.158;6.322;2022-12-18T13:51:43;8.63;;;5.43;;
53151;SDS011;39234;53.158;6.322;2022-12-18T13:54:28;9.05;;;5.07;;
53151;SDS011;39234;53.158;6.322;2022-12-18T13:56:56;9.55;;;5.20;;
53151;SDS011;39234;53.158;6.322;2022-12-18T13:59:23;11.63;;;6.65;;
53151;SDS011;39234;53.158;6.322;2022-12-18T14:06:45;13.32;;;5.30;;
53151;SDS011;39234;53.158;6.322;2022-12-18T14:09:13;12.10;;;6.18;;
53151;SDS011;39234;53.158;6.322;2022-12-18T14:11:40;9.35;;;5.50;;
53151;SDS011;39234;53.158;6.322;2022-12-18T14:14:06;9.40;;;5.13;;
53151;SDS011;39234;53.158;6.322;2022-12-18T14:16:32;8.60;;;5.13;;
53151;SDS011;39234;53.158;6.322;2022-12-18T14:18:59;10.80;;;5.20;;
53151;SDS011;39234;53.158;6.322;2022-12-18T14:21:26;13.85;;;6.20;;
53151;SDS011;39234;53.158;6.322;2022-12-18T14:24:03;8.50;;;4.68;;
53151;SDS011;39234;53.158;6.322;2022-12-18T14:26:30;9.65;;;5.32;;
53151;SDS011;39234;53.158;6.322;2022-12-18T14:28:59;9.70;;;5.47;;
53151;SDS011;39234;53.158;6.322;2022-12-18T14:31:29;12.05;;;4.97;;
53151;SDS011;39234;53.158;6.322;2022-12-18T14:33:55;12.90;;;5.78;;
53151;SDS011;39234;53.158;6.322;2022-12-18T14:36:28;10.45;;;5.50;;
53151;SDS011;39234;53.158;6.322;2022-12-18T14:38:55;9.27;;;5.15;;
53151;SDS011;39234;53.158;6.322;2022-12-18T14:41:22;8.85;;;5.10;;
53151;SDS011;39234;53.158;6.322;2022-12-18T14:43:49;9.43;;;5.55;;
53151;SDS011;39234;53.158;6.322;2022-12-18T14:46:33;19.38;;;6.20;;
53151;SDS011;39234;53.158;6.322;2022-12-18T14:49:00;9.77;;;5.68;;
53151;SDS011;39234;53.158;6.322;2022-12-18T14:51:33;8.73;;;5.00;;
53151;SDS011;39234;53.158;6.322;2022-12-18T14:54:03;11.02;;;6.20;;
53151;SDS011;39234;53.158;6.322;2022-12-18T14:56:37;11.13;;;5.15;;
53151;SDS011;39234;53.158;6.322;2022-12-18T14:59:26;11.75;;;5.10;;
53151;SDS011;39234;53.158;6.322;2022-12-18T15:09:32;11.38;;;5.20;;
53151;SDS011;39234;53.158;6.322;2022-12-18T15:11:58;10.77;;;5.50;;
53151;SDS011;39234;53.158;6.322;2022-12-18T15:19:25;10.40;;;5.00;;
53151;SDS011;39234;53.158;6.322;2022-12-18T15:21:53;11.35;;;5.55;;
53151;SDS011;39234;53.158;6.322;2022-12-18T15:24:21;12.85;;;6.40;;
53151;SDS011;39234;53.158;6.322;2022-12-18T15:26:48;10.63;;;5.72;;
53151;SDS011;39234;53.158;6.322;2022-12-18T15:29:19;11.27;;;5.43;;
53151;SDS011;39234;53.158;6.322;2022-12-18T15:31:57;9.25;;;4.70;;
53151;SDS011;39234;53.158;6.322;2022-12-18T15:34:23;9.13;;;5.25;;
53151;SDS011;39234;53.158;6.322;2022-12-18T15:36:51;9.48;;;5.15;;
53151;SDS011;39234;53.158;6.322;2022-12-18T15:39:17;10.38;;;5.90;;
53151;SDS011;39234;53.158;6.322;2022-12-18T15:41:43;11.05;;;5.43;;
53151;SDS011;39234;53.158;6.322;2022-12-18T15:44:29;10.50;;;5.95;;
53151;SDS011;39234;53.158;6.322;2022-12-18T15:46:56;9.82;;;5.45;;
53151;SDS011;39234;53.158;6.322;2022-12-18T15:49:22;10.52;;;5.22;;
53151;SDS011;39234;53.158;6.322;2022-12-18T15:51:52;10.18;;;5.47;;
53151;SDS011;39234;53.158;6.322;2022-12-18T15:54:19;10.13;;;6.03;;
53151;SDS011;39234;53.158;6.322;2022-12-18T15:57:07;9.45;;;5.20;;
53151;SDS011;39234;53.158;6.322;2022-12-18T15:59:49;9.98;;;5.72;;
53151;SDS011;39234;53.158;6.322;2022-12-18T16:02:16;9.93;;;6.13;;
53151;SDS011;39234;53.158;6.322;2022-12-18T16:04:43;11.48;;;6.72;;
53151;SDS011;39234;53.158;6.322;2022-12-18T16:07:10;11.40;;;6.30;;
53151;SDS011;39234;53.158;6.322;2022-12-18T16:09:37;10.32;;;6.60;;
53151;SDS011;39234;53.158;6.322;2022-12-18T16:12:04;11.57;;;6.53;;
53151;SDS011;39234;53.158;6.322;2022-12-18T16:14:30;14.98;;;6.80;;
53151;SDS011;39234;53.158;6.322;2022-12-18T16:16:58;11.88;;;6.47;;
53151;SDS011;39234;53.158;6.322;2022-12-18T16:19:24;12.25;;;7.57;;
53151;SDS011;39234;53.158;6.322;2022-12-18T16:21:51;12.60;;;7.05;;
53151;SDS011;39234;53.158;6.322;2022-12-18T16:24:18;10.90;;;6.38;;
53151;SDS011;39234;53.158;6.322;2022-12-18T16:26:44;12.77;;;6.97;;
53151;SDS011;39234;53.158;6.322;2022-12-18T16:29:10;12.05;;;6.95;;
53151;SDS011;39234;53.158;6.322;2022-12-18T16:31:37;14.60;;;6.70;;
53151;SDS011;39234;53.158;6.322;2022-12-18T16:34:10;12.50;;;6.90;;
53151;SDS011;39234;53.158;6.322;2022-12-18T16:36:36;11.88;;;7.32;;